Time;durP1;ratioP1;P1;durP2;ratioP2;P2;SDS_P1;SDS_P2;PMS_P1;PMS_P2;Temp;Humidity;BMP_temperature;BMP_pressure;BME280_temperature;BME280_humidity;BME280_pressure;Samples;Min_cycle;Max_cycle;Signal;HPM_P1;HPM_P2
2021/09/16 00:01:43;;;;;;;12.07;11.37;;;16.80;99.90;;;;;;5015102;28;20287;-78
2021/09/16 00:04:10;;;;;;;11.77;11.07;;;16.80;99.90;;;;;;5032999;28;20262;-78
2021/09/16 00:06:39;;;;;;;12.00;11.30;;;16.90;99.90;;;;;;5015145;28;20210;-78
2021/09/16 00:09:05;;;;;;;12.00;11.30;;;16.80;99.90;;;;;;5014185;28;20207;-76
2021/09/16 00:11:32;;;;;;;12.00;11.30;;;16.90;99.90;;;;;;5011440;28;20229;-78
2021/09/16 00:13:59;;;;;;;12.10;11.30;;;16.90;99.90;;;;;;5013391;28;20278;-78
2021/09/16 00:16:26;;;;;;;12.50;11.70;;;16.90;99.90;;;;;;5033008;28;20601;-78
2021/09/16 00:18:53;;;;;;;11.67;10.97;;;16.90;99.90;;;;;;5032664;28;20250;-78
2021/09/16 00:21:20;;;;;;;11.93;11.23;;;16.90;99.90;;;;;;5032735;28;20275;-78
2021/09/16 00:23:48;;;;;;;11.67;10.90;;;16.90;99.90;;;;;;5014874;28;20206;-78
2021/09/16 00:26:15;;;;;;;11.37;10.70;;;16.90;99.90;;;;;;5014948;28;20200;-78
2021/09/16 00:28:41;;;;;;;11.97;11.20;;;16.80;99.90;;;;;;5032231;28;20223;-78
2021/09/16 00:31:08;;;;;;;11.80;11.10;;;16.90;99.90;;;;;;5032370;28;20216;-78
2021/09/16 00:33:36;;;;;;;12.03;11.33;;;16.90;99.90;;;;;;5014794;28;20555;-78
2021/09/16 00:36:03;;;;;;;12.00;11.30;;;16.80;99.90;;;;;;5030659;28;20218;-78
2021/09/16 00:38:30;;;;;;;12.37;11.67;;;16.80;99.90;;;;;;5032296;28;20256;-78
2021/09/16 00:40:59;;;;;;;12.53;11.83;;;16.80;99.90;;;;;;5014667;28;20291;-78
2021/09/16 00:43:26;;;;;;;12.50;11.70;;;16.80;99.90;;;;;;5032221;28;20226;-78
2021/09/16 00:46:02;;;;;;;12.10;11.40;;;16.80;99.90;;;;;;5028502;28;20200;-78
2021/09/16 00:48:28;;;;;;;12.13;11.23;;;16.80;99.90;;;;;;5012365;28;20589;-77
2021/09/16 00:50:55;;;;;;;11.80;11.10;;;16.80;99.90;;;;;;5014518;28;20226;-78
2021/09/16 00:53:23;;;;;;;11.50;10.90;;;16.90;99.90;;;;;;5014251;28;20678;-78
2021/09/16 00:55:52;;;;;;;12.17;11.47;;;16.90;99.90;;;;;;5014527;28;20197;-78
2021/09/16 00:58:21;;;;;;;11.70;10.90;;;16.80;99.90;;;;;;5013603;28;20672;-78
2021/09/16 01:00:48;;;;;;;11.83;11.13;;;16.90;99.90;;;;;;5035966;23;20288;-77
2021/09/16 01:03:15;;;;;;;11.50;10.80;;;16.90;99.90;;;;;;5005771;28;20234;-76
2021/09/16 01:05:42;;;;;;;11.60;10.90;;;16.90;99.90;;;;;;5003513;28;20240;-76
2021/09/16 01:08:09;;;;;;;11.73;11.07;;;16.90;99.90;;;;;;4996243;28;20264;-76
2021/09/16 01:10:36;;;;;;;11.63;10.80;;;16.90;99.90;;;;;;5020072;28;20230;-75
2021/09/16 01:13:02;;;;;;;11.63;10.83;;;16.90;99.90;;;;;;5016917;28;20198;-77
2021/09/16 01:15:31;;;;;;;12.10;11.40;;;16.90;99.90;;;;;;5016659;28;20736;-77
2021/09/16 01:17:57;;;;;;;11.90;11.20;;;16.90;99.90;;;;;;4995642;28;20248;-76
2021/09/16 01:20:25;;;;;;;12.07;11.27;;;17.00;99.90;;;;;;5015097;28;20199;-76
2021/09/16 01:22:53;;;;;;;11.80;11.00;;;17.00;99.90;;;;;;5016088;28;20669;-77
2021/09/16 01:25:25;;;;;;;11.30;10.70;;;17.00;99.90;;;;;;5000676;28;20228;-76
2021/09/16 01:27:53;;;;;;;11.87;11.13;;;17.00;99.90;;;;;;4992737;28;20236;-75
2021/09/16 01:30:20;;;;;;;11.80;11.10;;;17.10;99.90;;;;;;5011711;28;20261;-76
2021/09/16 01:32:48;;;;;;;11.73;10.93;;;17.10;99.90;;;;;;5015132;28;20202;-76
2021/09/16 01:35:16;;;;;;;11.37;10.77;;;17.10;99.90;;;;;;4996681;28;20626;-77
2021/09/16 01:37:43;;;;;;;12.50;11.60;;;17.10;99.90;;;;;;4995056;28;20276;-75
2021/09/16 01:40:12;;;;;;;11.60;10.90;;;17.10;99.90;;;;;;5015649;28;20653;-77
2021/09/16 01:42:41;;;;;;;11.47;10.77;;;17.10;99.90;;;;;;4998201;28;20279;-77
2021/09/16 01:45:12;;;;;;;11.87;11.07;;;17.10;99.90;;;;;;4998426;28;20210;-76
2021/09/16 01:47:39;;;;;;;11.40;10.63;;;17.10;99.90;;;;;;5002086;28;20266;-75
2021/09/16 01:50:06;;;;;;;11.40;10.80;;;17.10;99.90;;;;;;5015387;28;20278;-77
2021/09/16 01:52:34;;;;;;;11.20;10.60;;;17.00;99.90;;;;;;5017703;28;20221;-76
2021/09/16 01:55:00;;;;;;;11.50;10.90;;;17.00;99.90;;;;;;4995801;28;20210;-76
2021/09/16 01:57:29;;;;;;;12.13;11.43;;;17.00;99.90;;;;;;5014806;28;20201;-75
2021/09/16 01:59:55;;;;;;;12.70;11.90;;;17.00;99.90;;;;;;5017068;28;20638;-77
2021/09/16 02:02:22;;;;;;;11.80;11.20;;;17.00;99.90;;;;;;5007963;28;20227;-76
2021/09/16 02:04:49;;;;;;;12.00;11.20;;;16.90;99.90;;;;;;5016418;28;20676;-76
2021/09/16 02:07:16;;;;;;;12.27;11.47;;;17.00;99.90;;;;;;5016812;28;20222;-77
2021/09/16 02:09:43;;;;;;;12.30;11.60;;;17.00;99.90;;;;;;5016823;28;20279;-75
2021/09/16 02:12:10;;;;;;;12.40;11.70;;;17.00;99.90;;;;;;5011725;28;20271;-77
2021/09/16 02:14:39;;;;;;;11.60;11.00;;;17.00;99.90;;;;;;4994075;28;20204;-75
2021/09/16 02:17:06;;;;;;;12.10;11.40;;;17.00;99.90;;;;;;4994004;28;20207;-77
2021/09/16 02:19:33;;;;;;;12.60;11.90;;;17.00;99.90;;;;;;4993342;28;20193;-77
2021/09/16 02:22:00;;;;;;;12.10;11.40;;;17.00;99.90;;;;;;5011593;28;20264;-76
2021/09/16 02:24:26;;;;;;;12.90;12.10;;;17.00;99.90;;;;;;5000240;28;20672;-76
2021/09/16 02:26:53;;;;;;;12.37;11.67;;;17.00;99.90;;;;;;5016646;28;20604;-77
2021/09/16 02:29:20;;;;;;;12.73;11.90;;;17.00;99.90;;;;;;4999881;28;20361;-75
2021/09/16 02:31:48;;;;;;;12.20;11.50;;;16.90;99.90;;;;;;5002385;28;20364;-75
2021/09/16 02:34:15;;;;;;;12.93;11.93;;;16.90;99.90;;;;;;5021031;28;20592;-76
2021/09/16 02:36:42;;;;;;;12.63;11.73;;;16.90;99.90;;;;;;5018905;28;20197;-76
2021/09/16 02:39:09;;;;;;;12.77;11.97;;;16.90;99.90;;;;;;5022626;28;20278;-79
2021/09/16 02:41:36;;;;;;;12.37;11.67;;;16.90;99.90;;;;;;5025066;28;20266;-84
2021/09/16 02:44:03;;;;;;;12.20;11.50;;;16.90;99.90;;;;;;5031484;28;20699;-84
2021/09/16 02:46:30;;;;;;;12.20;11.50;;;16.90;99.90;;;;;;5007774;28;20204;-81
2021/09/16 02:48:58;;;;;;;12.67;11.80;;;16.90;99.90;;;;;;5009445;28;20303;-85
2021/09/16 02:51:25;;;;;;;8.63;8.13;;;16.90;99.90;;;;;;5007138;28;20770;-82
2021/09/16 02:53:52;;;;;;;9.03;8.53;;;16.90;99.90;;;;;;4994397;28;20204;-82
2021/09/16 02:56:19;;;;;;;12.07;11.37;;;16.90;99.90;;;;;;5002932;28;20196;-83
2021/09/16 02:58:46;;;;;;;11.77;11.07;;;16.90;99.90;;;;;;4990747;28;20206;-82
2021/09/16 03:01:13;;;;;;;8.27;7.77;;;16.90;99.90;;;;;;4994680;28;20481;-83
2021/09/16 03:03:39;;;;;;;7.90;7.50;;;16.90;99.90;;;;;;5005336;28;20236;-81
2021/09/16 03:06:08;;;;;;;8.20;7.70;;;16.90;99.90;;;;;;4994904;28;20642;-82
2021/09/16 03:08:34;;;;;;;8.83;8.23;;;16.90;99.90;;;;;;5014260;28;20637;-82
2021/09/16 03:11:01;;;;;;;8.60;8.10;;;16.90;99.90;;;;;;4992168;28;20565;-77
2021/09/16 03:13:28;;;;;;;8.67;8.07;;;16.90;99.90;;;;;;4996363;28;20269;-75
2021/09/16 03:15:55;;;;;;;9.10;8.43;;;17.00;99.90;;;;;;5022634;28;20613;-77
2021/09/16 03:18:21;;;;;;;9.50;8.90;;;17.00;99.90;;;;;;5019310;28;20263;-77
2021/09/16 03:20:48;;;;;;;8.70;8.20;;;17.00;99.90;;;;;;5001639;28;20226;-77
2021/09/16 03:23:16;;;;;;;8.80;8.20;;;17.00;99.90;;;;;;5016187;28;20202;-82
2021/09/16 03:25:43;;;;;;;8.73;8.23;;;17.00;99.90;;;;;;4993276;28;20208;-77
2021/09/16 03:28:10;;;;;;;8.63;8.13;;;17.00;99.90;;;;;;5013934;28;20213;-75
2021/09/16 03:30:37;;;;;;;9.17;8.63;;;17.00;99.90;;;;;;4994295;28;20495;-75
2021/09/16 03:33:03;;;;;;;9.00;8.40;;;17.00;99.90;;;;;;5001025;28;20254;-74
2021/09/16 03:35:30;;;;;;;8.90;8.40;;;16.90;99.90;;;;;;4995597;28;20670;-75
2021/09/16 03:37:57;;;;;;;9.60;8.90;;;17.00;99.90;;;;;;4989078;28;20209;-75
2021/09/16 03:40:25;;;;;;;10.60;10.00;;;17.00;99.90;;;;;;4998992;28;20263;-74
2021/09/16 03:42:52;;;;;;;9.50;9.00;;;17.00;99.90;;;;;;5016759;28;20213;-74
2021/09/16 03:45:20;;;;;;;9.57;8.97;;;17.00;99.90;;;;;;5017260;28;20212;-75
2021/09/16 03:47:46;;;;;;;9.60;8.90;;;17.00;99.90;;;;;;5019695;28;20199;-74
2021/09/16 03:50:14;;;;;;;10.40;9.60;;;17.00;99.90;;;;;;4989093;28;20263;-73
2021/09/16 03:52:41;;;;;;;9.30;8.80;;;17.00;99.90;;;;;;5020692;28;20211;-73
2021/09/16 03:55:09;;;;;;;9.50;8.87;;;17.00;99.90;;;;;;5001263;28;20671;-73
2021/09/16 03:57:37;;;;;;;9.43;8.83;;;17.00;99.90;;;;;;5014935;28;20565;-75
2021/09/16 04:00:06;;;;;;;9.47;8.80;;;16.90;99.90;;;;;;5014266;28;20197;-74
2021/09/16 04:02:33;;;;;;;9.50;8.90;;;16.90;99.90;;;;;;5015131;28;20232;-74
2021/09/16 04:05:00;;;;;;;9.50;8.90;;;16.90;99.90;;;;;;5000506;28;20207;-73
2021/09/16 04:07:27;;;;;;;9.70;9.10;;;16.90;99.90;;;;;;5007804;28;20198;-75
2021/09/16 04:09:53;;;;;;;10.10;9.50;;;17.00;99.90;;;;;;5022909;28;20267;-75
2021/09/16 04:12:20;;;;;;;9.80;9.20;;;16.90;99.90;;;;;;5005866;28;20320;-75
2021/09/16 04:14:48;;;;;;;9.90;9.20;;;16.90;99.90;;;;;;5015312;28;20202;-75
2021/09/16 04:17:15;;;;;;;10.00;9.40;;;17.00;99.90;;;;;;4995187;28;20271;-75
2021/09/16 04:19:42;;;;;;;9.80;9.17;;;17.00;99.90;;;;;;5024348;28;20201;-75
2021/09/16 04:22:09;;;;;;;10.00;9.10;;;17.00;99.90;;;;;;5018438;28;20223;-75
2021/09/16 04:24:35;;;;;;;10.17;9.47;;;17.00;99.90;;;;;;4995261;28;20200;-74
2021/09/16 04:27:03;;;;;;;10.67;9.97;;;17.00;99.90;;;;;;4999654;28;20726;-74
2021/09/16 04:29:30;;;;;;;10.00;9.30;;;17.00;99.90;;;;;;5002259;28;20216;-75
2021/09/16 04:31:58;;;;;;;9.40;8.80;;;17.00;99.90;;;;;;5014314;28;20272;-75
2021/09/16 04:34:25;;;;;;;9.70;9.00;;;17.00;99.90;;;;;;5015903;28;20205;-74
2021/09/16 04:36:52;;;;;;;10.30;9.50;;;17.00;99.90;;;;;;5018382;28;20197;-75
2021/09/16 04:39:18;;;;;;;10.00;9.20;;;17.00;99.90;;;;;;4994876;28;20201;-75
2021/09/16 04:41:45;;;;;;;10.00;9.20;;;17.00;99.90;;;;;;5019246;28;20250;-75
2021/09/16 04:44:12;;;;;;;10.00;9.40;;;17.00;99.90;;;;;;5014922;28;20215;-74
2021/09/16 04:46:39;;;;;;;9.93;9.33;;;17.00;99.90;;;;;;5018029;28;20597;-75
2021/09/16 04:49:07;;;;;;;9.83;9.23;;;17.00;99.90;;;;;;5016687;28;20278;-75
2021/09/16 04:51:34;;;;;;;9.70;9.10;;;17.00;99.90;;;;;;4997684;28;20278;-74
2021/09/16 04:54:01;;;;;;;10.23;9.53;;;17.00;99.90;;;;;;5018638;28;20251;-75
2021/09/16 04:56:27;;;;;;;10.73;9.83;;;17.00;99.90;;;;;;4997873;28;20198;-74
2021/09/16 04:58:54;;;;;;;11.03;10.03;;;17.00;99.90;;;;;;5016187;28;20630;-74
2021/09/16 05:01:21;;;;;;;10.80;10.10;;;17.10;99.90;;;;;;4999565;28;20652;-75
2021/09/16 05:03:48;;;;;;;10.97;10.17;;;17.10;99.90;;;;;;5012263;28;20256;-74
2021/09/16 05:06:16;;;;;;;14.27;13.37;;;17.10;99.90;;;;;;5012231;28;20261;-75
2021/09/16 05:08:43;;;;;;;11.70;10.90;;;17.00;99.90;;;;;;5011798;28;20213;-74
2021/09/16 05:11:12;;;;;;;11.13;10.33;;;17.00;99.90;;;;;;5011621;28;20213;-75
2021/09/16 05:13:39;;;;;;;11.53;10.73;;;17.10;99.90;;;;;;5012112;28;20205;-75
2021/09/16 05:16:06;;;;;;;11.23;10.40;;;17.00;99.90;;;;;;5011981;28;20193;-74
2021/09/16 05:18:32;;;;;;;11.40;10.70;;;17.10;99.90;;;;;;4994207;28;20205;-75
2021/09/16 05:20:59;;;;;;;11.87;10.87;;;17.10;99.90;;;;;;5012140;28;20206;-75
2021/09/16 05:23:27;;;;;;;13.63;12.50;;;17.10;99.90;;;;;;4994401;28;20243;-75
2021/09/16 05:25:54;;;;;;;11.93;11.03;;;17.10;99.90;;;;;;4994500;28;20255;-75
2021/09/16 05:28:21;;;;;;;11.37;10.40;;;17.10;99.90;;;;;;4994035;28;20258;-75
2021/09/16 05:30:48;;;;;;;10.70;10.00;;;17.20;99.90;;;;;;5019852;28;20221;-75
2021/09/16 05:33:14;;;;;;;10.60;9.90;;;17.20;99.90;;;;;;5001858;28;20209;-75
2021/09/16 05:35:41;;;;;;;10.60;9.90;;;17.20;99.90;;;;;;4997336;28;20624;-75
2021/09/16 05:38:08;;;;;;;10.53;9.83;;;17.20;99.90;;;;;;5015258;28;20214;-75
2021/09/16 05:40:36;;;;;;;10.73;10.03;;;17.20;99.90;;;;;;4998151;28;20251;-75
2021/09/16 05:43:03;;;;;;;10.77;9.87;;;17.20;99.90;;;;;;4993858;28;20272;-75
2021/09/16 05:45:30;;;;;;;10.40;9.70;;;17.20;99.90;;;;;;4999459;28;20206;-75
2021/09/16 05:47:57;;;;;;;10.30;9.60;;;17.20;99.90;;;;;;5019348;28;20346;-75
2021/09/16 05:50:24;;;;;;;10.10;9.50;;;17.20;99.90;;;;;;5018238;28;20221;-75
2021/09/16 05:52:51;;;;;;;10.23;9.53;;;17.30;99.90;;;;;;4996612;28;20237;-75
2021/09/16 05:55:18;;;;;;;9.93;9.33;;;17.30;99.90;;;;;;5012246;28;20252;-75
2021/09/16 05:57:46;;;;;;;13.03;12.23;;;17.40;99.90;;;;;;5017426;28;20200;-75
2021/09/16 06:00:14;;;;;;;9.50;8.90;;;17.40;99.90;;;;;;4998963;28;20203;-75
2021/09/16 06:02:40;;;;;;;9.63;9.03;;;17.40;99.90;;;;;;5016914;28;20275;-75
2021/09/16 06:05:08;;;;;;;10.27;9.47;;;17.50;99.90;;;;;;5001440;28;20643;-74
2021/09/16 06:07:35;;;;;;;14.00;13.20;;;17.60;99.90;;;;;;5016343;28;20198;-74
2021/09/16 06:10:02;;;;;;;13.97;13.13;;;17.60;99.90;;;;;;4997489;28;20232;-75
2021/09/16 06:12:30;;;;;;;13.70;12.80;;;17.70;99.90;;;;;;5021497;28;20781;-75
2021/09/16 06:14:58;;;;;;;13.23;12.40;;;17.70;99.90;;;;;;5003216;28;20615;-75
2021/09/16 06:17:25;;;;;;;13.90;13.00;;;17.80;99.90;;;;;;5003428;28;20189;-75
2021/09/16 06:19:52;;;;;;;14.23;13.33;;;17.80;99.90;;;;;;5016805;28;20195;-75
2021/09/16 06:22:20;;;;;;;14.27;13.47;;;17.80;99.90;;;;;;5019141;28;20708;-75
2021/09/16 06:24:46;;;;;;;14.73;13.93;;;17.80;99.90;;;;;;5022041;28;20199;-75
2021/09/16 06:27:13;;;;;;;14.40;13.50;;;17.80;99.90;;;;;;4989689;28;20656;-75
2021/09/16 06:29:40;;;;;;;14.17;13.37;;;17.80;99.90;;;;;;5014327;28;20307;-75
2021/09/16 06:32:08;;;;;;;10.00;9.40;;;17.90;99.90;;;;;;4997349;28;20225;-75
2021/09/16 06:34:35;;;;;;;10.13;9.43;;;18.00;99.90;;;;;;5014883;28;20734;-75
2021/09/16 06:37:03;;;;;;;13.87;13.07;;;18.20;99.90;;;;;;5014918;28;20645;-75
2021/09/16 06:39:30;;;;;;;13.53;12.77;;;18.40;99.90;;;;;;4997027;28;20262;-75
2021/09/16 06:41:57;;;;;;;13.20;12.50;;;18.60;99.90;;;;;;5014583;28;20224;-75
2021/09/16 06:44:24;;;;;;;10.17;9.47;;;18.90;99.90;;;;;;5020111;28;20258;-75
2021/09/16 06:46:51;;;;;;;13.93;13.13;;;19.10;99.90;;;;;;5007944;28;20247;-75
2021/09/16 06:49:19;;;;;;;10.23;9.47;;;19.40;99.90;;;;;;5000997;28;20274;-75
2021/09/16 06:51:45;;;;;;;7.23;6.53;;;19.70;99.90;;;;;;5003527;28;20275;-75
2021/09/16 06:54:12;;;;;;;4.87;4.47;;;19.90;99.90;;;;;;5004775;28;20677;-75
2021/09/16 06:56:39;;;;;;;3.87;3.57;;;20.00;99.90;;;;;;5017705;28;20203;-75
2021/09/16 06:59:06;;;;;;;5.90;5.30;;;20.20;99.90;;;;;;5017973;28;20244;-75
2021/09/16 07:01:33;;;;;;;11.00;10.40;;;20.40;99.90;;;;;;5043451;23;20282;-76
2021/09/16 07:04:00;;;;;;;9.40;8.80;;;20.70;99.90;;;;;;5009002;28;20290;-76
2021/09/16 07:06:28;;;;;;;12.43;11.63;;;20.90;99.90;;;;;;5027336;28;20194;-77
2021/09/16 07:08:56;;;;;;;4.50;4.13;;;21.30;99.90;;;;;;5008712;28;20545;-77
2021/09/16 07:11:23;;;;;;;10.87;10.13;;;22.00;99.90;;;;;;5007863;28;20216;-77
2021/09/16 07:13:50;;;;;;;10.20;9.60;;;22.50;99.90;;;;;;5011783;28;20204;-77
2021/09/16 07:16:16;;;;;;;5.77;4.40;;;23.20;99.90;;;;;;5010153;28;20203;-77
2021/09/16 07:18:43;;;;;;;10.60;9.80;;;23.40;99.90;;;;;;5010379;28;20211;-77
2021/09/16 07:21:10;;;;;;;11.87;11.07;;;23.30;99.90;;;;;;5029618;28;20692;-77
2021/09/16 07:23:38;;;;;;;5.37;3.73;;;23.20;99.90;;;;;;5018804;28;20199;-77
2021/09/16 07:26:05;;;;;;;4.63;3.97;;;23.00;99.90;;;;;;5010918;28;20212;-77
2021/09/16 07:28:35;;;;;;;4.33;3.63;;;22.80;99.90;;;;;;5032309;28;20733;-77
2021/09/16 07:31:02;;;;;;;4.97;3.70;;;22.50;99.90;;;;;;5016819;28;20690;-77
2021/09/16 07:33:29;;;;;;;4.57;3.40;;;22.30;99.90;;;;;;5034054;28;20254;-77
2021/09/16 07:35:56;;;;;;;4.03;3.30;;;22.10;99.90;;;;;;5031814;28;20671;-77
2021/09/16 07:38:23;;;;;;;3.90;3.50;;;22.00;99.90;;;;;;5031486;28;20204;-77
2021/09/16 07:40:52;;;;;;;4.43;3.27;;;22.00;99.90;;;;;;5008817;28;20200;-77
2021/09/16 07:43:19;;;;;;;3.20;3.00;;;22.30;99.90;;;;;;5016575;28;20208;-77
2021/09/16 07:45:46;;;;;;;4.90;3.40;;;22.60;99.90;;;;;;5023457;28;20207;-77
2021/09/16 07:48:13;;;;;;;3.80;3.20;;;22.60;99.90;;;;;;5014660;28;20198;-77
2021/09/16 07:50:40;;;;;;;9.50;8.67;;;22.50;99.90;;;;;;5014466;28;20209;-76
2021/09/16 07:53:09;;;;;;;5.53;4.57;;;22.40;99.90;;;;;;5032296;28;20216;-76
2021/09/16 07:55:37;;;;;;;3.30;3.00;;;22.40;99.90;;;;;;5027370;28;20200;-77
2021/09/16 07:58:05;;;;;;;10.40;9.63;;;22.40;99.90;;;;;;5028866;28;20200;-76
2021/09/16 08:00:32;;;;;;;10.70;10.10;;;22.40;99.90;;;;;;5007799;28;20211;-77
2021/09/16 08:02:59;;;;;;;3.53;3.00;;;22.40;99.90;;;;;;5034547;28;20231;-77
2021/09/16 08:05:25;;;;;;;6.97;6.47;;;22.40;99.90;;;;;;5034053;28;20201;-77
2021/09/16 08:07:52;;;;;;;5.50;5.00;;;22.40;99.90;;;;;;5016469;28;20204;-77
2021/09/16 08:10:19;;;;;;;7.40;6.90;;;22.50;99.90;;;;;;5023111;28;20207;-76
2021/09/16 08:12:46;;;;;;;5.40;5.00;;;22.50;99.90;;;;;;5013650;28;20217;-77
2021/09/16 08:15:16;;;;;;;6.77;6.17;;;22.60;99.90;;;;;;5016563;28;20224;-77
2021/09/16 08:17:43;;;;;;;6.60;6.10;;;22.60;99.90;;;;;;5033809;28;20250;-76
2021/09/16 08:20:11;;;;;;;6.13;5.63;;;22.50;99.90;;;;;;5033679;28;20257;-77
2021/09/16 08:22:38;;;;;;;5.83;5.30;;;22.50;99.90;;;;;;5033469;28;20227;-77
2021/09/16 08:25:07;;;;;;;6.20;5.70;;;22.50;99.90;;;;;;5033647;28;20235;-77
2021/09/16 08:27:35;;;;;;;6.77;6.27;;;22.40;99.90;;;;;;5033736;28;20194;-77
2021/09/16 08:30:02;;;;;;;6.03;5.60;;;22.40;99.90;;;;;;5006830;28;20239;-77
2021/09/16 08:32:30;;;;;;;6.07;5.67;;;22.40;99.90;;;;;;5026815;28;20220;-76
2021/09/16 08:34:57;;;;;;;6.20;5.70;;;22.40;99.90;;;;;;5012146;28;20197;-77
2021/09/16 08:37:24;;;;;;;7.87;6.90;;;22.30;99.90;;;;;;5033347;28;20198;-76
2021/09/16 08:39:51;;;;;;;7.53;6.80;;;22.20;99.90;;;;;;5031239;28;20199;-77
2021/09/16 08:42:18;;;;;;;5.50;5.00;;;22.00;99.90;;;;;;5013982;28;20219;-76
2021/09/16 08:44:45;;;;;;;5.80;5.30;;;21.80;99.90;;;;;;5015687;28;20223;-77
2021/09/16 08:47:15;;;;;;;6.30;5.80;;;21.60;99.90;;;;;;5015551;28;20203;-76
2021/09/16 08:49:43;;;;;;;6.60;6.20;;;21.50;99.90;;;;;;5028651;28;20299;-76
2021/09/16 08:52:11;;;;;;;9.70;9.07;;;21.30;99.90;;;;;;5015636;28;20271;-76
2021/09/16 08:54:40;;;;;;;10.53;9.50;;;21.10;99.90;;;;;;5033515;28;20196;-77
2021/09/16 08:57:12;;;;;;;8.43;7.57;;;20.90;99.90;;;;;;5033711;28;20257;-76
2021/09/16 08:59:41;;;;;;;12.30;11.40;;;20.70;99.90;;;;;;5014156;28;20215;-77
2021/09/16 09:02:08;;;;;;;12.50;11.70;;;20.60;99.90;;;;;;5032126;28;20721;-77
2021/09/16 09:04:35;;;;;;;12.77;11.77;;;20.40;99.90;;;;;;5033066;28;20272;-77
2021/09/16 09:07:05;;;;;;;13.00;12.10;;;20.40;99.90;;;;;;5035233;28;20202;-78
2021/09/16 09:09:32;;;;;;;13.43;12.23;;;20.50;99.90;;;;;;5034498;28;20617;-77
2021/09/16 09:12:01;;;;;;;12.57;11.77;;;20.50;99.90;;;;;;5034087;28;20269;-77
2021/09/16 09:14:30;;;;;;;12.30;11.50;;;20.40;99.90;;;;;;5033793;28;20210;-77
2021/09/16 09:16:58;;;;;;;11.07;10.37;;;20.30;99.90;;;;;;5016924;28;20676;-77
2021/09/16 09:19:28;;;;;;;10.80;10.10;;;20.20;99.90;;;;;;5032945;28;20719;-77
2021/09/16 09:21:55;;;;;;;10.20;9.60;;;20.10;99.90;;;;;;5028091;28;20254;-76
2021/09/16 09:24:32;;;;;;;10.27;9.67;;;19.90;99.90;;;;;;5032321;28;20660;-77
2021/09/16 09:26:59;;;;;;;10.03;9.43;;;19.70;99.90;;;;;;5023525;28;20202;-76
2021/09/16 09:29:26;;;;;;;9.87;9.37;;;19.60;99.90;;;;;;5031924;28;20746;-76
2021/09/16 09:31:57;;;;;;;10.30;9.70;;;19.50;99.90;;;;;;5013570;28;20230;-77
2021/09/16 09:34:30;;;;;;;10.00;9.50;;;19.40;99.90;;;;;;5014748;28;20678;-77
2021/09/16 09:37:09;;;;;;;10.23;9.63;;;19.30;99.90;;;;;;5007315;28;20202;-76
2021/09/16 09:39:38;;;;;;;10.03;9.50;;;19.30;99.90;;;;;;5032078;28;20207;-76
2021/09/16 09:42:24;;;;;;;9.73;9.23;;;19.30;99.90;;;;;;5031985;28;20216;-76
2021/09/16 09:44:54;;;;;;;10.10;9.50;;;19.30;99.90;;;;;;5028940;28;20681;-76
2021/09/16 09:47:43;;;;;;;9.90;9.37;;;19.30;99.90;;;;;;5036499;28;20204;-76
2021/09/16 09:50:18;;;;;;;10.90;10.30;;;19.30;99.90;;;;;;5026442;28;20248;-76
2021/09/16 09:52:45;;;;;;;9.90;9.30;;;19.20;99.90;;;;;;5031693;28;20223;-76
2021/09/16 09:55:14;;;;;;;10.30;9.73;;;19.30;99.90;;;;;;5037055;28;20211;-76
2021/09/16 09:57:41;;;;;;;10.20;9.70;;;19.20;99.90;;;;;;5034350;28;20220;-76
2021/09/16 10:00:10;;;;;;;11.30;10.70;;;19.20;99.90;;;;;;5011728;28;20221;-76
2021/09/16 10:02:52;;;;;;;11.27;10.67;;;19.20;99.90;;;;;;5017309;28;20242;-76
2021/09/16 10:05:22;;;;;;;11.07;10.47;;;19.10;99.90;;;;;;5036562;28;20212;-76
2021/09/16 10:07:50;;;;;;;11.43;10.83;;;19.00;99.90;;;;;;5027982;28;20189;-76
2021/09/16 10:10:19;;;;;;;12.10;11.40;;;19.00;99.90;;;;;;5027003;28;20215;-76
2021/09/16 10:12:47;;;;;;;12.60;11.80;;;18.90;99.90;;;;;;5028065;28;20272;-76
2021/09/16 10:15:16;;;;;;;11.40;10.80;;;18.80;99.90;;;;;;5018112;28;20208;-76
2021/09/16 10:17:43;;;;;;;12.20;11.60;;;18.60;99.90;;;;;;5033860;28;20195;-76
2021/09/16 10:20:12;;;;;;;12.27;11.57;;;18.40;99.90;;;;;;5036077;28;20204;-76
2021/09/16 10:22:41;;;;;;;11.20;10.60;;;18.40;99.90;;;;;;5035882;28;20224;-75
2021/09/16 10:25:09;;;;;;;11.17;10.57;;;18.30;99.90;;;;;;5016200;28;20271;-76
2021/09/16 10:27:40;;;;;;;12.30;11.60;;;18.20;99.90;;;;;;5017265;28;20557;-76
2021/09/16 10:30:30;;;;;;;11.80;11.10;;;18.20;99.90;;;;;;5027230;28;20577;-76
2021/09/16 10:33:19;;;;;;;8.93;8.43;;;18.20;99.90;;;;;;5010941;28;20219;-76
2021/09/16 10:35:48;;;;;;;3.93;3.73;;;18.20;99.90;;;;;;5022785;28;20212;-76
2021/09/16 10:38:27;;;;;;;11.80;11.10;;;18.20;99.90;;;;;;5034893;28;20612;-76
2021/09/16 10:41:14;;;;;;;2.70;2.50;;;18.20;99.90;;;;;;5028038;28;20625;-75
2021/09/16 10:43:44;;;;;;;2.70;2.60;;;18.20;99.90;;;;;;5035674;28;20191;-76
2021/09/16 10:46:28;;;;;;;2.80;2.60;;;18.20;99.90;;;;;;5035412;28;20195;-76
2021/09/16 10:48:55;;;;;;;3.97;2.63;;;18.20;99.90;;;;;;5012539;28;20206;-76
2021/09/16 10:51:40;;;;;;;2.93;2.80;;;18.20;99.90;;;;;;5015002;28;20219;-75
2021/09/16 10:54:35;;;;;;;7.23;3.40;;;18.10;99.90;;;;;;5023003;28;20208;-76
2021/09/16 10:57:04;;;;;;;7.60;7.10;;;18.10;99.90;;;;;;5018859;28;20687;-76
2021/09/16 11:00:11;;;;;;;7.33;6.93;;;18.10;99.90;;;;;;5031198;28;20207;-75
2021/09/16 11:03:16;;;;;;;6.30;5.90;;;18.10;99.90;;;;;;5015297;28;20228;-76
2021/09/16 11:05:55;;;;;;;5.40;5.00;;;18.20;99.90;;;;;;5034070;28;20199;-76
2021/09/16 11:08:36;;;;;;;4.47;4.07;;;18.30;99.90;;;;;;5009252;28;20215;-76
2021/09/16 11:11:03;;;;;;;5.37;4.97;;;18.30;99.90;;;;;;5028076;28;20621;-76
2021/09/16 11:13:53;;;;;;;4.90;4.50;;;18.20;99.90;;;;;;5034234;28;20199;-76
2021/09/16 11:16:27;;;;;;;5.93;5.37;;;18.20;99.90;;;;;;5031053;28;20247;-76
2021/09/16 11:19:05;;;;;;;6.20;5.60;;;18.10;99.90;;;;;;5016672;28;20195;-76
2021/09/16 11:21:32;;;;;;;5.80;5.30;;;18.00;99.90;;;;;;5013230;28;20211;-76
2021/09/16 11:23:59;;;;;;;6.00;5.50;;;18.00;99.90;;;;;;5010168;28;20196;-76
2021/09/16 11:26:27;;;;;;;5.77;5.27;;;18.00;99.90;;;;;;5016591;28;20195;-76
2021/09/16 11:29:08;;;;;;;6.20;5.60;;;18.00;99.90;;;;;;5004913;28;20669;-76
2021/09/16 11:31:37;;;;;;;6.67;6.07;;;18.10;99.90;;;;;;5024177;28;20723;-76
2021/09/16 11:34:09;;;;;;;6.40;5.80;;;18.20;99.90;;;;;;5016313;28;20254;-76
2021/09/16 11:36:36;;;;;;;6.93;6.17;;;18.20;99.90;;;;;;5011563;28;20253;-76
2021/09/16 11:39:16;;;;;;;7.20;6.50;;;18.20;99.90;;;;;;5027599;28;20214;-76
2021/09/16 11:41:43;;;;;;;7.27;6.57;;;18.10;99.90;;;;;;5031933;28;20268;-76
2021/09/16 11:44:10;;;;;;;6.73;6.13;;;18.00;99.90;;;;;;5034307;28;20234;-75
2021/09/16 11:46:38;;;;;;;7.67;6.87;;;18.10;99.90;;;;;;5033611;28;20230;-75
2021/09/16 11:49:05;;;;;;;8.73;7.93;;;18.00;99.90;;;;;;5033628;28;20202;-76
2021/09/16 11:51:32;;;;;;;12.43;11.43;;;17.90;99.90;;;;;;5032689;28;20723;-76
2021/09/16 11:54:11;;;;;;;13.63;12.23;;;17.90;99.90;;;;;;5009299;28;20233;-76
2021/09/16 11:56:37;;;;;;;11.47;10.47;;;17.80;99.90;;;;;;5033968;28;20665;-76
2021/09/16 11:59:09;;;;;;;10.53;9.53;;;17.80;99.90;;;;;;5016270;28;20219;-75
2021/09/16 12:01:36;;;;;;;12.77;11.67;;;17.80;99.90;;;;;;5015987;28;20317;-76
2021/09/16 12:04:04;;;;;;;17.47;16.13;;;17.80;99.90;;;;;;5029990;28;20203;-76
2021/09/16 12:06:34;;;;;;;17.83;16.43;;;17.80;99.90;;;;;;5033701;28;20672;-76
2021/09/16 12:09:03;;;;;;;18.47;17.07;;;17.90;99.90;;;;;;5033647;28;20221;-75
2021/09/16 12:11:31;;;;;;;18.27;16.87;;;18.00;99.90;;;;;;5031892;28;20285;-76
2021/09/16 12:14:00;;;;;;;19.23;17.67;;;18.00;99.90;;;;;;5033460;28;20212;-76
2021/09/16 12:16:30;;;;;;;19.80;18.30;;;17.90;99.90;;;;;;5007378;28;20211;-76
2021/09/16 12:18:58;;;;;;;19.10;17.67;;;18.00;99.90;;;;;;5007011;28;20200;-75
2021/09/16 12:21:29;;;;;;;20.27;18.70;;;18.20;99.90;;;;;;5033388;28;20210;-76
2021/09/16 12:23:58;;;;;;;18.87;17.23;;;18.30;99.90;;;;;;5018403;28;20200;-76
2021/09/16 12:26:27;;;;;;;19.40;17.93;;;18.50;99.90;;;;;;5027887;28;20203;-76
2021/09/16 12:28:58;;;;;;;18.60;17.13;;;18.70;99.90;;;;;;5032867;28;20200;-76
2021/09/16 12:31:27;;;;;;;18.70;17.23;;;18.90;99.90;;;;;;5050014;28;20211;-77
2021/09/16 12:34:13;;;;;;;18.77;17.43;;;18.90;99.90;;;;;;5031505;28;20315;-77
2021/09/16 12:36:52;;;;;;;18.93;17.43;;;18.90;99.90;;;;;;5033539;28;20200;-76
2021/09/16 12:39:19;;;;;;;18.57;17.07;;;18.70;99.90;;;;;;5027953;28;20209;-76
2021/09/16 12:41:54;;;;;;;19.20;17.70;;;18.60;99.90;;;;;;5049319;28;20243;-76
2021/09/16 12:44:23;;;;;;;19.93;18.33;;;18.50;99.90;;;;;;5046025;28;20202;-76